createdAt,value
2023-05-10T00:00:06.350Z,273.42
2023-05-10T00:01:06.388Z,266.15
2023-05-10T00:02:06.487Z,272.71
2023-05-10T00:03:06.679Z,269.10
2023-05-10T00:04:06.569Z,272.56
2023-05-10T00:05:06.640Z,269.28
2023-05-10T00:06:06.687Z,263.84
2023-05-10T00:07:06.813Z,266.10
2023-05-10T00:08:06.888Z,264.07
2023-05-10T00:09:06.867Z,262.54
2023-05-10T00:10:06.950Z,260.69
2023-05-10T00:11:07.059Z,257.41
2023-05-10T00:12:07.091Z,259.73
2023-05-10T00:13:07.177Z,256.73
2023-05-10T00:14:07.205Z,260.22
2023-05-10T00:15:07.265Z,257.72
2023-05-10T00:16:07.369Z,257.07
2023-05-10T00:17:07.329Z,254.92
2023-05-10T00:18:07.547Z,255.64
2023-05-10T00:19:07.533Z,252.27
2023-05-10T00:20:07.564Z,251.33
2023-05-10T00:21:07.667Z,252.03
2023-05-10T00:22:07.712Z,250.42
2023-05-10T00:23:07.719Z,247.18
2023-05-10T00:24:07.795Z,249.06
2023-05-10T00:25:07.875Z,253.25
2023-05-10T00:26:07.990Z,245.97
2023-05-10T00:27:08.011Z,245.93
2023-05-10T00:28:08.069Z,241.70
2023-05-10T00:29:08.251Z,237.95
2023-05-10T00:30:08.199Z,243.37
2023-05-10T00:31:08.238Z,243.54
2023-05-10T00:32:08.421Z,239.68
2023-05-10T00:33:08.446Z,242.27
2023-05-10T00:34:08.459Z,238.80
2023-05-10T00:35:08.489Z,236.94
2023-05-10T00:36:08.550Z,240.94
2023-05-10T00:37:08.614Z,233.96
2023-05-10T00:38:08.691Z,235.62
2023-05-10T00:39:08.725Z,233.95
2023-05-10T00:40:08.797Z,235.51
2023-05-10T00:41:08.882Z,230.58
2023-05-10T00:42:08.940Z,228.66
2023-05-10T00:43:09.028Z,229.77
2023-05-10T00:44:09.025Z,224.10
2023-05-10T00:45:09.120Z,228.75
2023-05-10T00:46:09.217Z,227.57
2023-05-10T00:47:09.234Z,225.13
2023-05-10T00:48:09.302Z,227.07
2023-05-10T00:49:09.336Z,225.85
2023-05-10T00:50:09.405Z,222.83
2023-05-10T00:51:09.491Z,226.74
2023-05-10T00:52:09.519Z,222.89
2023-05-10T00:53:09.606Z,221.61
2023-05-10T00:54:09.662Z,219.36
2023-05-10T00:55:09.854Z,219.76
2023-05-10T00:56:09.839Z,218.70
2023-05-10T00:57:09.909Z,218.25
2023-05-10T00:58:09.950Z,215.69
2023-05-10T00:59:09.983Z,217.59
2023-05-10T01:00:10.076Z,215.48
2023-05-10T01:01:10.158Z,212.06
2023-05-10T01:02:10.206Z,217.23
2023-05-10T01:03:10.327Z,212.11
2023-05-10T01:04:10.312Z,210.49
2023-05-10T01:05:10.401Z,212.89
2023-05-10T01:06:10.422Z,214.66
2023-05-10T01:07:10.539Z,211.77
2023-05-10T01:08:10.602Z,211.53
2023-05-10T01:09:10.602Z,205.56
2023-05-10T01:10:10.705Z,204.45
2023-05-10T01:11:10.761Z,206.50
2023-05-10T01:12:10.842Z,207.24
2023-05-10T01:13:10.971Z,204.56
2023-05-10T01:14:10.887Z,205.61
2023-05-10T01:15:10.994Z,203.70
2023-05-10T01:16:11.052Z,204.53
2023-05-10T01:17:11.060Z,199.19
2023-05-10T01:18:11.110Z,203.74
2023-05-10T01:19:11.232Z,201.33
2023-05-10T01:20:11.251Z,203.60
2023-05-10T01:21:11.298Z,197.07
2023-05-10T01:22:11.337Z,194.93
2023-05-10T01:23:11.406Z,199.89
2023-05-10T01:24:11.497Z,199.86
2023-05-10T01:25:11.532Z,195.98
2023-05-10T01:26:11.582Z,194.75
2023-05-10T01:27:11.685Z,197.58
2023-05-10T01:28:11.753Z,196.77
2023-05-10T01:29:11.783Z,195.64
2023-05-10T01:30:15.830Z,193.82
2023-05-10T01:31:12.932Z,194.13
2023-05-10T01:32:11.849Z,194.38
2023-05-10T01:33:11.837Z,194.91
2023-05-10T01:34:11.805Z,196.32
2023-05-10T01:35:11.842Z,193.19
2023-05-10T01:36:11.800Z,194.12
2023-05-10T01:37:11.799Z,191.82
2023-05-10T01:38:11.794Z,193.88
2023-05-10T01:39:11.875Z,193.15
2023-05-10T01:40:11.889Z,191.57
2023-05-10T01:41:11.952Z,189.21
2023-05-10T01:42:12.038Z,191.28
2023-05-10T01:43:12.108Z,187.95
2023-05-10T01:44:12.165Z,186.03
2023-05-10T01:45:12.250Z,186.30
2023-05-10T01:46:12.320Z,186.67
2023-05-10T01:47:12.343Z,185.96
2023-05-10T01:48:12.427Z,185.56
2023-05-10T01:49:12.460Z,183.92
2023-05-10T01:50:12.477Z,181.79
2023-05-10T01:51:12.523Z,183.55
2023-05-10T01:52:12.616Z,184.68
2023-05-10T01:53:12.678Z,177.93
2023-05-10T01:54:12.715Z,181.46
2023-05-10T01:55:12.827Z,179.24
2023-05-10T01:56:12.810Z,179.38
2023-05-10T01:57:12.917Z,181.01
2023-05-10T01:58:12.965Z,180.38
2023-05-10T01:59:13.030Z,176.85
2023-05-10T02:00:13.052Z,179.34
2023-05-10T02:01:13.260Z,174.90
2023-05-10T02:02:13.334Z,176.02
2023-05-10T02:03:13.376Z,174.79
2023-05-10T02:04:13.333Z,176.09
2023-05-10T02:05:13.331Z,174.26
2023-05-10T02:06:13.383Z,171.90
2023-05-10T02:07:13.458Z,171.29
2023-05-10T02:08:13.538Z,172.39
2023-05-10T02:09:13.564Z,174.41
2023-05-10T02:10:13.812Z,169.26
2023-05-10T02:11:13.666Z,172.12
2023-05-10T02:12:13.748Z,167.38
2023-05-10T02:13:13.914Z,171.31
2023-05-10T02:14:13.850Z,168.03
2023-05-10T02:15:13.846Z,164.88
2023-05-10T02:16:14.021Z,168.99
2023-05-10T02:17:13.976Z,165.66
2023-05-10T02:18:14.018Z,164.17
2023-05-10T02:19:14.050Z,164.48
2023-05-10T02:20:14.291Z,164.43
2023-05-10T02:21:14.218Z,162.18
2023-05-10T02:22:14.249Z,161.54
2023-05-10T02:23:14.327Z,164.12
2023-05-10T02:24:14.432Z,161.10
2023-05-10T02:25:14.401Z,160.55
2023-05-10T02:26:14.448Z,159.96
2023-05-10T02:27:14.520Z,157.93
2023-05-10T02:28:14.599Z,158.17
2023-05-10T02:29:14.630Z,157.87
2023-05-10T02:30:14.842Z,157.55
2023-05-10T02:31:14.734Z,160.18
2023-05-10T02:32:14.818Z,159.24
2023-05-10T02:33:14.911Z,155.81
2023-05-10T02:34:15.123Z,154.28
2023-05-10T02:35:15.017Z,155.71
2023-05-10T02:36:15.053Z,152.67
2023-05-10T02:37:15.147Z,153.27
2023-05-10T02:38:15.198Z,151.08
2023-05-10T02:39:15.242Z,153.34
2023-05-10T02:40:15.682Z,151.23
2023-05-10T02:41:15.382Z,149.69
2023-05-10T02:42:15.402Z,149.22
2023-05-10T02:43:15.479Z,149.67
2023-05-10T02:44:15.523Z,149.82
2023-05-10T02:45:15.599Z,148.32
2023-05-10T02:46:15.698Z,146.52
2023-05-10T02:47:15.723Z,149.83
2023-05-10T02:48:15.764Z,147.13
2023-05-10T02:49:15.772Z,144.47
2023-05-10T02:50:16.037Z,144.72
2023-05-10T02:51:15.874Z,145.71
2023-05-10T02:52:15.898Z,146.18
2023-05-10T02:53:16.017Z,143.03
2023-05-10T02:54:15.972Z,143.17
2023-05-10T02:55:16.013Z,142.69
2023-05-10T02:56:16.088Z,142.09
2023-05-10T02:57:16.088Z,142.66
2023-05-10T02:58:16.103Z,141.36
2023-05-10T02:59:16.165Z,138.77
2023-05-10T03:00:16.486Z,142.70
2023-05-10T03:01:16.320Z,137.92
2023-05-10T03:02:16.289Z,139.55
2023-05-10T03:03:16.387Z,139.60
2023-05-10T03:04:16.465Z,134.77
2023-05-10T03:05:16.425Z,138.16
2023-05-10T03:06:16.454Z,137.64
2023-05-10T03:07:16.495Z,137.73
2023-05-10T03:08:16.527Z,135.15
2023-05-10T03:09:16.695Z,135.95
2023-05-10T03:10:16.985Z,135.47
2023-05-10T03:11:16.663Z,134.90
2023-05-10T03:12:16.721Z,134.29
2023-05-10T03:13:16.814Z,131.62
2023-05-10T03:14:16.774Z,133.19
2023-05-10T03:15:16.784Z,135.20
2023-05-10T03:16:16.862Z,132.24
2023-05-10T03:17:16.877Z,133.56
2023-05-10T03:18:16.916Z,131.83
2023-05-10T03:19:16.962Z,132.03
2023-05-10T03:20:17.346Z,130.02
2023-05-10T03:21:16.999Z,129.44
2023-05-10T03:22:17.086Z,128.92
2023-05-10T03:23:17.155Z,131.37
2023-05-10T03:24:17.201Z,127.70
2023-05-10T03:25:17.209Z,129.70
2023-05-10T03:26:17.224Z,128.45
2023-05-10T03:27:17.335Z,127.97
2023-05-10T03:28:17.338Z,127.18
2023-05-10T03:29:17.334Z,127.24
2023-05-10T03:30:17.750Z,128.39
2023-05-10T03:31:17.439Z,125.43
2023-05-10T03:32:17.428Z,126.97
2023-05-10T03:33:17.460Z,124.05
2023-05-10T03:34:17.511Z,124.95
2023-05-10T03:35:17.589Z,123.89
2023-05-10T03:36:17.599Z,122.09
2023-05-10T03:37:17.636Z,121.23
2023-05-10T03:38:17.692Z,121.92
2023-05-10T03:39:17.708Z,119.46
2023-05-10T03:40:18.011Z,121.01
2023-05-10T03:41:17.787Z,119.93
2023-05-10T03:42:17.842Z,120.20
2023-05-10T03:43:17.841Z,119.78
2023-05-10T03:44:17.921Z,117.83
2023-05-10T03:45:17.920Z,119.00
2023-05-10T03:46:18.036Z,117.99
2023-05-10T03:47:17.995Z,119.52
2023-05-10T03:48:18.042Z,116.77
2023-05-10T03:49:18.092Z,117.20
2023-05-10T03:50:18.347Z,116.39
2023-05-10T03:51:18.179Z,114.10
2023-05-10T03:52:18.243Z,117.41
2023-05-10T03:53:18.277Z,115.59
2023-05-10T03:54:18.324Z,116.49
2023-05-10T03:55:18.326Z,115.81
2023-05-10T03:56:18.403Z,117.69
2023-05-10T03:57:18.385Z,114.85
2023-05-10T03:58:18.409Z,113.52
2023-05-10T03:59:18.461Z,111.40
2023-05-10T04:00:18.728Z,113.41
2023-05-10T04:01:18.581Z,113.71
2023-05-10T04:02:18.591Z,111.83
2023-05-10T04:03:18.751Z,110.88
2023-05-10T04:04:18.710Z,100.69
2023-05-10T04:05:18.720Z,94.63
2023-05-10T04:06:18.872Z,89.57
2023-05-10T04:07:18.781Z,85.74
2023-05-10T04:08:18.786Z,73.44
2023-05-10T04:09:18.840Z,70.11
2023-05-10T04:10:19.166Z,65.64
2023-05-10T04:11:18.905Z,63.41
2023-05-10T04:12:18.969Z,63.15
2023-05-10T04:13:19.031Z,63.27
2023-05-10T04:14:19.040Z,63.52
2023-05-10T04:15:19.088Z,64.04
2023-05-10T04:16:19.136Z,65.35
2023-05-10T04:17:19.209Z,67.43
2023-05-10T04:18:19.158Z,68.49
2023-05-10T04:19:19.218Z,70.20
2023-05-10T04:20:19.371Z,70.78
2023-05-10T04:21:19.304Z,71.23
2023-05-10T04:22:19.341Z,71.20
2023-05-10T04:23:19.406Z,72.96
2023-05-10T04:24:19.450Z,72.40
2023-05-10T04:25:19.522Z,74.10
2023-05-10T04:26:19.650Z,73.92
2023-05-10T04:27:19.634Z,73.37
2023-05-10T04:28:19.680Z,72.13
2023-05-10T04:29:19.759Z,67.85
2023-05-10T04:30:19.720Z,66.81
2023-05-10T04:31:19.910Z,70.07
2023-05-10T04:32:19.826Z,71.76
2023-05-10T04:33:19.841Z,73.74
2023-05-10T04:34:19.834Z,73.80
2023-05-10T04:35:19.912Z,74.84
2023-05-10T04:36:19.894Z,75.76
2023-05-10T04:37:19.911Z,74.30
2023-05-10T04:38:19.918Z,73.69
2023-05-10T04:39:19.934Z,72.90
2023-05-10T04:40:19.930Z,72.93
2023-05-10T04:41:19.928Z,74.30
2023-05-10T04:42:19.997Z,74.62
2023-05-10T04:43:19.995Z,74.19
2023-05-10T04:44:19.974Z,76.09
2023-05-10T04:45:20.006Z,75.36
2023-05-10T04:46:20.039Z,76.46
2023-05-10T04:47:20.064Z,77.13
2023-05-10T04:48:20.030Z,78.75
2023-05-10T04:49:20.031Z,80.48
2023-05-10T04:50:20.045Z,78.93
2023-05-10T04:51:20.050Z,80.67
2023-05-10T04:52:20.018Z,80.36
2023-05-10T04:53:20.046Z,83.32
2023-05-10T04:54:20.069Z,82.45
2023-05-10T04:55:20.077Z,83.34
2023-05-10T04:56:20.083Z,82.59
2023-05-10T04:57:20.036Z,81.98
2023-05-10T04:58:20.057Z,79.36
2023-05-10T04:59:20.061Z,80.67
2023-05-10T05:00:20.060Z,80.21
2023-05-10T05:01:20.146Z,81.75
2023-05-10T05:02:20.117Z,81.37
2023-05-10T05:03:20.126Z,80.83
2023-05-10T05:04:20.095Z,81.14
2023-05-10T05:05:20.100Z,81.91
2023-05-10T05:06:20.153Z,89.07
2023-05-10T05:07:20.217Z,89.33
2023-05-10T05:08:20.162Z,90.15
2023-05-10T05:09:20.230Z,89.94
2023-05-10T05:10:20.358Z,86.63
2023-05-10T05:11:20.296Z,89.53
2023-05-10T05:12:20.326Z,89.99
2023-05-10T05:13:20.373Z,85.65
2023-05-10T05:14:20.370Z,84.38
2023-05-10T05:15:20.423Z,86.53
2023-05-10T05:16:20.480Z,87.31
2023-05-10T05:17:20.492Z,85.71
2023-05-10T05:18:20.534Z,85.31
2023-05-10T05:19:20.549Z,84.48
2023-05-10T05:20:20.611Z,88.63
2023-05-10T05:21:20.622Z,87.70
2023-05-10T05:22:20.658Z,85.52
2023-05-10T05:23:20.672Z,85.27
2023-05-10T05:24:20.743Z,82.85
2023-05-10T05:25:20.781Z,81.94
2023-05-10T05:26:20.834Z,82.87
2023-05-10T05:27:20.902Z,79.94
2023-05-10T05:28:20.929Z,79.72
2023-05-10T05:29:21.043Z,76.23
2023-05-10T05:30:21.131Z,79.52
2023-05-10T05:31:21.160Z,82.87
2023-05-10T05:32:21.186Z,85.86
2023-05-10T05:33:21.214Z,90.89
2023-05-10T05:34:21.226Z,95.36
2023-05-10T05:35:21.244Z,94.29
2023-05-10T05:36:21.337Z,95.26
2023-05-10T05:37:21.389Z,90.27
2023-05-10T05:38:21.451Z,85.83
2023-05-10T05:39:21.420Z,80.59
2023-05-10T05:40:21.515Z,74.63
2023-05-10T05:41:21.516Z,75.81
2023-05-10T05:42:21.575Z,70.26
2023-05-10T05:43:21.591Z,72.45
2023-05-10T05:44:21.630Z,62.62
2023-05-10T05:45:21.683Z,58.27
2023-05-10T05:46:21.738Z,57.78
2023-05-10T05:47:21.834Z,57.44
2023-05-10T05:48:21.774Z,69.68
2023-05-10T05:49:21.834Z,85.53
2023-05-10T05:50:21.810Z,82.48
2023-05-10T05:51:21.826Z,78.24
2023-05-10T05:52:21.871Z,71.55
2023-05-10T05:53:21.941Z,63.20
2023-05-10T05:54:21.877Z,60.04
2023-05-10T05:55:21.922Z,51.11
2023-05-10T05:56:21.932Z,51.50
2023-05-10T05:57:21.944Z,47.32
2023-05-10T05:58:21.933Z,45.74
2023-05-10T05:59:21.910Z,44.85
2023-05-10T06:00:21.963Z,41.10
2023-05-10T06:01:22.377Z,43.63
2023-05-10T06:02:22.024Z,37.03
2023-05-10T06:03:22.047Z,38.25
2023-05-10T06:04:22.089Z,33.06
2023-05-10T06:05:21.953Z,39.71
2023-05-10T06:06:22.372Z,45.21
2023-05-10T06:07:21.925Z,38.76
2023-05-10T06:08:21.927Z,38.21
2023-05-10T06:09:22.428Z,36.11
2023-05-10T06:10:21.949Z,35.86
2023-05-10T06:11:22.453Z,33.78
2023-05-10T06:12:21.887Z,31.27
2023-05-10T06:13:21.967Z,29.95
2023-05-10T06:14:21.937Z,32.72
2023-05-10T06:15:21.941Z,32.40
2023-05-10T06:16:21.950Z,33.36
2023-05-10T06:17:21.925Z,33.76
2023-05-10T06:18:21.928Z,32.91
2023-05-10T06:19:21.929Z,33.24
2023-05-10T06:20:21.945Z,33.81
2023-05-10T06:21:21.913Z,34.15
2023-05-10T06:22:22.056Z,35.16
2023-05-10T06:23:22.006Z,34.57
2023-05-10T06:24:22.024Z,34.95
2023-05-10T06:25:22.055Z,36.50
2023-05-10T06:26:22.145Z,36.16
2023-05-10T06:27:22.144Z,35.97
2023-05-10T06:28:22.342Z,35.96
2023-05-10T06:29:23.225Z,37.53
2023-05-10T06:30:22.262Z,37.38
2023-05-10T06:31:22.356Z,37.36
2023-05-10T06:32:22.393Z,38.67
2023-05-10T06:33:22.414Z,44.57
2023-05-10T06:34:22.502Z,44.34
2023-05-10T06:35:22.527Z,46.95
2023-05-10T06:36:22.558Z,57.51
2023-05-10T06:37:22.590Z,64.77
2023-05-10T06:38:22.572Z,76.99
2023-05-10T06:39:22.924Z,87.27
2023-05-10T06:40:22.589Z,82.81
2023-05-10T06:41:24.616Z,72.58
2023-05-10T06:42:22.552Z,54.18
2023-05-10T06:43:22.575Z,52.08
2023-05-10T06:44:22.572Z,52.70
2023-05-10T06:45:22.571Z,57.56
2023-05-10T06:46:22.836Z,57.90
2023-05-10T06:47:22.582Z,55.73
2023-05-10T06:48:22.706Z,55.29
2023-05-10T06:49:22.866Z,50.76
2023-05-10T06:50:22.605Z,50.23
2023-05-10T06:51:22.673Z,49.56
2023-05-10T06:52:22.619Z,50.74
2023-05-10T06:53:22.666Z,52.16
2023-05-10T06:54:22.700Z,51.40
2023-05-10T06:55:22.748Z,52.88
2023-05-10T06:56:22.871Z,52.05
2023-05-10T06:57:31.097Z,52.71
2023-05-10T06:58:23.884Z,52.75
2023-05-10T06:59:22.885Z,47.86
2023-05-10T07:00:22.998Z,44.72
2023-05-10T07:01:23.039Z,45.44
2023-05-10T07:02:22.993Z,45.83
2023-05-10T07:03:23.447Z,45.01
2023-05-10T07:04:22.914Z,45.19
2023-05-10T07:05:22.984Z,44.49
2023-05-10T07:06:32.989Z,45.28
2023-05-10T07:07:23.789Z,45.42
2023-05-10T07:08:22.781Z,46.23
2023-05-10T07:09:22.879Z,46.97
2023-05-10T07:10:22.896Z,47.30
2023-05-10T07:11:22.781Z,50.09
2023-05-10T07:12:22.809Z,51.99
2023-05-10T07:13:22.865Z,56.90
2023-05-10T07:14:22.794Z,59.42
2023-05-10T07:15:22.894Z,61.41
2023-05-10T07:16:23.040Z,62.44
2023-05-10T07:17:23.030Z,62.48
2023-05-10T07:18:23.104Z,61.30
2023-05-10T07:19:23.050Z,61.18
2023-05-10T07:20:23.176Z,62.49
2023-05-10T07:21:23.195Z,66.17
2023-05-10T07:22:23.398Z,67.16
2023-05-10T07:23:23.332Z,71.32
2023-05-10T07:24:23.363Z,68.91
2023-05-10T07:25:23.470Z,68.65
2023-05-10T07:26:23.478Z,71.75
2023-05-10T07:27:23.552Z,71.27
2023-05-10T07:28:23.696Z,71.25
2023-05-10T07:29:23.640Z,75.47
2023-05-10T07:30:23.791Z,74.63
2023-05-10T07:31:23.734Z,84.42
2023-05-10T07:32:23.952Z,92.22
2023-05-10T07:33:23.965Z,98.33
2023-05-10T07:34:23.997Z,106.46
2023-05-10T07:35:24.964Z,102.95
2023-05-10T07:36:24.049Z,95.86
2023-05-10T07:37:24.049Z,93.10
2023-05-10T07:38:24.103Z,89.98
2023-05-10T07:39:27.949Z,89.27
2023-05-10T07:40:24.081Z,89.46
2023-05-10T07:41:24.435Z,90.35
2023-05-10T07:42:24.031Z,88.93
2023-05-10T07:43:24.035Z,92.02
2023-05-10T07:44:24.053Z,89.95
2023-05-10T07:45:24.054Z,93.97
2023-05-10T07:46:24.082Z,87.49
2023-05-10T07:47:24.075Z,81.66
2023-05-10T07:48:23.982Z,87.26
2023-05-10T07:49:24.089Z,80.69
2023-05-10T07:50:23.996Z,80.07
2023-05-10T07:51:23.995Z,75.04
2023-05-10T07:52:24.016Z,78.82
2023-05-10T07:53:23.947Z,76.28
2023-05-10T07:54:23.982Z,74.77
2023-05-10T07:55:24.940Z,71.49
2023-05-10T07:56:23.986Z,69.13
2023-05-10T07:57:24.027Z,68.38
2023-05-10T07:58:24.056Z,74.36
2023-05-10T07:59:24.150Z,78.42
2023-05-10T08:00:24.214Z,88.67
2023-05-10T08:01:24.383Z,92.27
2023-05-10T08:02:24.273Z,96.87
2023-05-10T08:03:24.407Z,100.15
2023-05-10T08:04:24.415Z,93.80
2023-05-10T08:05:24.499Z,94.71
2023-05-10T08:06:24.505Z,99.27
2023-05-10T08:07:24.729Z,102.99
2023-05-10T08:08:24.625Z,100.73
2023-05-10T08:09:24.892Z,99.53
2023-05-10T08:10:24.786Z,101.30
2023-05-10T08:11:24.792Z,101.63
2023-05-10T08:12:24.898Z,103.04
2023-05-10T08:13:25.488Z,104.17
2023-05-10T08:14:24.968Z,104.32
2023-05-10T08:15:25.100Z,105.95
2023-05-10T08:16:25.278Z,109.31
2023-05-10T08:17:25.181Z,109.86
2023-05-10T08:18:25.434Z,106.03
2023-05-10T08:19:25.310Z,105.13
2023-05-10T08:20:25.375Z,99.88
2023-05-10T08:21:25.431Z,97.41
2023-05-10T08:22:25.489Z,90.41
2023-05-10T08:23:25.537Z,83.54
2023-05-10T08:24:25.609Z,85.17
2023-05-10T08:25:25.658Z,85.46
2023-05-10T08:26:25.705Z,94.80
2023-05-10T08:27:25.834Z,107.88
2023-05-10T08:28:25.891Z,112.05
2023-05-10T08:29:26.808Z,106.30
2023-05-10T08:30:26.102Z,104.51
2023-05-10T08:31:26.242Z,100.82
2023-05-10T08:32:26.272Z,94.42
2023-05-10T08:33:26.329Z,82.84
2023-05-10T08:34:26.322Z,70.73
2023-05-10T08:35:26.343Z,66.82
2023-05-10T08:36:26.290Z,67.30
2023-05-10T08:37:26.243Z,67.57
2023-05-10T08:38:26.260Z,75.20
2023-05-10T08:39:30.460Z,72.70
2023-05-10T08:40:26.293Z,67.32
2023-05-10T08:41:26.291Z,59.99
2023-05-10T08:42:26.229Z,58.94
2023-05-10T08:43:26.262Z,58.42
2023-05-10T08:44:26.319Z,57.19
2023-05-10T08:45:26.364Z,56.31
2023-05-10T08:46:26.273Z,56.06
2023-05-10T08:47:26.267Z,57.74
2023-05-10T08:48:26.233Z,58.55
2023-05-10T08:49:26.253Z,60.96
2023-05-10T08:50:26.595Z,64.42
2023-05-10T08:51:26.189Z,63.15
2023-05-10T08:52:26.214Z,62.36
2023-05-10T08:53:26.212Z,61.17
2023-05-10T08:54:26.317Z,53.10
2023-05-10T08:55:26.389Z,54.54
2023-05-10T08:56:26.386Z,56.43
2023-05-10T08:57:26.898Z,48.90
2023-05-10T08:58:26.912Z,45.63
2023-05-10T08:59:26.558Z,42.44
2023-05-10T09:00:26.641Z,40.28
2023-05-10T09:01:26.747Z,38.68
2023-05-10T09:02:26.749Z,38.64
2023-05-10T09:03:26.790Z,39.43
2023-05-10T09:04:26.985Z,37.79
2023-05-10T09:05:26.966Z,37.01
2023-05-10T09:06:26.886Z,35.99
2023-05-10T09:07:26.920Z,36.90
2023-05-10T09:08:26.928Z,36.48
2023-05-10T09:09:26.926Z,37.04
2023-05-10T09:10:26.959Z,35.64
2023-05-10T09:11:26.950Z,35.47
2023-05-10T09:12:26.960Z,35.38
2023-05-10T09:13:26.938Z,35.73
2023-05-10T09:14:26.970Z,36.19
2023-05-10T09:15:27.135Z,37.32
2023-05-10T09:16:27.017Z,36.86
2023-05-10T09:17:27.079Z,38.94
2023-05-10T09:18:28.195Z,41.80
2023-05-10T09:19:27.005Z,45.75
2023-05-10T09:20:27.017Z,40.05
2023-05-10T09:21:27.422Z,42.64
2023-05-10T09:22:27.128Z,42.62
2023-05-10T09:23:27.175Z,41.75
2023-05-10T09:24:27.283Z,41.83
2023-05-10T09:25:27.352Z,40.33
2023-05-10T09:26:27.399Z,42.07
2023-05-10T09:27:27.476Z,44.10
2023-05-10T09:28:27.921Z,42.89
2023-05-10T09:29:27.601Z,38.27
2023-05-10T09:30:27.672Z,39.27
2023-05-10T09:31:27.742Z,43.61
2023-05-10T09:32:27.792Z,46.68
2023-05-10T09:33:27.846Z,51.99
2023-05-10T09:34:27.869Z,55.82
2023-05-10T09:35:29.653Z,59.14
2023-05-10T09:36:28.205Z,59.83
2023-05-10T09:37:28.038Z,59.06
2023-05-10T09:38:28.467Z,56.83
2023-05-10T09:39:28.222Z,55.90
2023-05-10T09:40:28.348Z,56.72
2023-05-10T09:41:28.292Z,52.17
2023-05-10T09:42:28.330Z,53.82
2023-05-10T09:43:28.445Z,52.98
2023-05-10T09:44:28.450Z,53.23
2023-05-10T09:45:28.535Z,54.76
2023-05-10T09:46:28.571Z,56.00
2023-05-10T09:47:28.641Z,51.99
2023-05-10T09:48:28.647Z,50.79
2023-05-10T09:49:28.694Z,53.99
2023-05-10T09:50:28.754Z,55.14
2023-05-10T09:51:28.807Z,57.67
2023-05-10T09:52:28.920Z,51.74
2023-05-10T09:53:28.882Z,49.51
2023-05-10T09:54:28.999Z,55.23
2023-05-10T09:55:29.044Z,55.86
2023-05-10T09:56:29.013Z,55.22
2023-05-10T09:57:29.926Z,55.29
2023-05-10T09:58:30.980Z,52.96
2023-05-10T09:59:29.185Z,53.37
2023-05-10T10:00:29.205Z,53.20
2023-05-10T10:01:29.280Z,52.63
2023-05-10T10:02:29.401Z,51.83
2023-05-10T10:03:30.351Z,52.79
2023-05-10T10:04:29.581Z,48.06
2023-05-10T10:05:29.417Z,45.67
2023-05-10T10:06:30.640Z,46.53
2023-05-10T10:07:29.590Z,45.32
2023-05-10T10:08:29.640Z,41.94
2023-05-10T10:09:29.742Z,42.36
2023-05-10T10:10:29.760Z,39.03
2023-05-10T10:11:29.720Z,40.03
2023-05-10T10:12:29.777Z,38.30
2023-05-10T10:13:29.880Z,35.17
2023-05-10T10:14:29.915Z,35.11
2023-05-10T10:15:30.500Z,35.14
2023-05-10T10:16:30.107Z,32.83
2023-05-10T10:17:30.098Z,33.86
2023-05-10T10:18:30.623Z,32.78
2023-05-10T10:19:30.511Z,32.96
2023-05-10T10:20:30.204Z,33.33
2023-05-10T10:21:30.235Z,36.83
2023-05-10T10:22:30.443Z,36.81
2023-05-10T10:23:30.385Z,37.15
2023-05-10T10:24:30.470Z,37.87
2023-05-10T10:25:30.492Z,36.10
2023-05-10T10:26:30.999Z,34.61
2023-05-10T10:27:30.607Z,32.21
2023-05-10T10:28:30.625Z,34.98
2023-05-10T10:29:30.676Z,37.07
2023-05-10T10:30:30.705Z,37.19
2023-05-10T10:31:30.836Z,38.45
2023-05-10T10:32:30.882Z,35.39
2023-05-10T10:33:30.896Z,37.42
2023-05-10T10:34:30.904Z,35.97
2023-05-10T10:35:30.962Z,34.67
2023-05-10T10:36:31.026Z,30.90
2023-05-10T10:37:31.035Z,30.34
2023-05-10T10:38:31.152Z,32.56
2023-05-10T10:39:31.088Z,35.36
2023-05-10T10:40:33.527Z,28.77
2023-05-10T10:41:31.466Z,29.88
2023-05-10T10:42:31.475Z,29.87
2023-05-10T10:43:31.278Z,29.25
2023-05-10T10:44:31.619Z,33.89
2023-05-10T10:45:31.113Z,35.05
2023-05-10T10:46:31.226Z,37.55
2023-05-10T10:47:31.208Z,34.28
2023-05-10T10:48:31.151Z,31.83
2023-05-10T10:49:31.106Z,30.25
2023-05-10T10:50:31.050Z,27.35
2023-05-10T10:51:31.069Z,21.87
2023-05-10T10:52:31.116Z,19.08
2023-05-10T10:53:31.194Z,24.92
2023-05-10T10:54:31.042Z,21.79
2023-05-10T10:55:31.042Z,21.86
2023-05-10T10:56:31.045Z,21.02
2023-05-10T10:57:31.003Z,16.34
2023-05-10T10:58:31.219Z,17.10
2023-05-10T10:59:31.026Z,16.88
2023-05-10T11:00:31.029Z,18.05
2023-05-10T11:01:31.101Z,21.06
2023-05-10T11:02:31.421Z,22.35
2023-05-10T11:03:31.050Z,21.28
2023-05-10T11:04:31.025Z,23.17
2023-05-10T11:05:31.544Z,26.69
2023-05-10T11:06:30.949Z,32.14
2023-05-10T11:07:30.964Z,33.30
2023-05-10T11:08:31.508Z,32.85
2023-05-10T11:09:30.940Z,34.23
2023-05-10T11:10:30.999Z,36.31
2023-05-10T11:11:30.993Z,37.58
2023-05-10T11:12:30.972Z,40.71
2023-05-10T11:13:30.916Z,44.13
2023-05-10T11:14:30.915Z,44.22
2023-05-10T11:15:30.988Z,45.28
2023-05-10T11:16:30.995Z,46.71
2023-05-10T11:17:31.114Z,43.20
2023-05-10T11:18:30.922Z,38.73
2023-05-10T11:19:30.836Z,29.66
2023-05-10T11:20:30.858Z,31.00
2023-05-10T11:21:30.861Z,37.51
2023-05-10T11:22:30.818Z,42.22
2023-05-10T11:23:30.845Z,43.78
2023-05-10T11:24:30.774Z,45.88
2023-05-10T11:25:30.841Z,39.85
2023-05-10T11:26:30.790Z,35.49
2023-05-10T11:27:30.802Z,35.10
2023-05-10T11:28:30.808Z,40.40
2023-05-10T11:29:30.802Z,36.80
2023-05-10T11:30:30.918Z,39.97
2023-05-10T11:31:31.053Z,33.81
2023-05-10T11:32:30.936Z,33.05
2023-05-10T11:33:30.902Z,33.10
2023-05-10T11:34:31.021Z,28.66
2023-05-10T11:35:31.006Z,33.95
2023-05-10T11:36:31.015Z,33.62
2023-05-10T11:37:31.061Z,30.25
2023-05-10T11:38:31.138Z,34.46
2023-05-10T11:39:31.151Z,31.25
2023-05-10T11:40:31.148Z,27.25
2023-05-10T11:41:31.179Z,27.54
2023-05-10T11:42:31.236Z,24.29
2023-05-10T11:43:31.283Z,25.41
2023-05-10T11:44:31.340Z,19.98
2023-05-10T11:45:31.322Z,22.76
2023-05-10T11:46:31.391Z,25.83
2023-05-10T11:47:31.449Z,21.21
2023-05-10T11:48:31.449Z,25.31
2023-05-10T11:49:31.463Z,27.64
2023-05-10T11:50:31.490Z,24.20
2023-05-10T11:51:31.497Z,27.11
2023-05-10T11:52:31.498Z,25.48
2023-05-10T11:53:31.569Z,26.89
2023-05-10T11:54:31.612Z,26.20
2023-05-10T11:55:31.654Z,24.50
2023-05-10T11:56:31.691Z,21.74
2023-05-10T11:57:31.684Z,21.78
2023-05-10T11:58:31.779Z,23.33
2023-05-10T11:59:31.798Z,24.45
2023-05-10T12:00:31.853Z,25.52
2023-05-10T12:01:31.855Z,25.75
2023-05-10T12:02:31.978Z,31.86
2023-05-10T12:03:32.146Z,31.41
2023-05-10T12:04:32.069Z,29.20
2023-05-10T12:05:32.069Z,30.66
2023-05-10T12:06:32.249Z,29.66
2023-05-10T12:07:32.142Z,26.19
2023-05-10T12:08:32.227Z,22.47
2023-05-10T12:09:43.401Z,19.67
2023-05-10T12:10:33.211Z,19.76
2023-05-10T12:11:32.220Z,19.77
2023-05-10T12:12:32.247Z,19.89
2023-05-10T12:13:32.200Z,22.43
2023-05-10T12:14:32.177Z,24.11
2023-05-10T12:15:32.220Z,24.42
2023-05-10T12:16:32.248Z,26.25
2023-05-10T12:17:32.216Z,25.89
2023-05-10T12:18:32.166Z,26.56
2023-05-10T12:19:32.210Z,26.02
2023-05-10T12:20:32.176Z,22.41
2023-05-10T12:21:32.158Z,21.72
2023-05-10T12:22:32.198Z,23.69
2023-05-10T12:23:32.326Z,25.15
2023-05-10T12:24:32.319Z,26.08
2023-05-10T12:25:32.363Z,25.99
2023-05-10T12:26:32.395Z,24.94
2023-05-10T12:27:32.429Z,23.89
2023-05-10T12:28:32.462Z,22.67
2023-05-10T12:29:32.519Z,20.75
2023-05-10T12:30:32.566Z,20.00
2023-05-10T12:31:32.645Z,20.84
2023-05-10T12:32:32.688Z,21.94
2023-05-10T12:33:32.697Z,22.82
2023-05-10T12:34:33.823Z,23.92
2023-05-10T12:35:32.751Z,23.87
2023-05-10T12:36:32.869Z,26.59
2023-05-10T12:37:32.875Z,24.90
2023-05-10T12:38:32.937Z,26.07
2023-05-10T12:39:32.987Z,23.56
2023-05-10T12:40:33.060Z,22.22
2023-05-10T12:41:33.151Z,22.51
2023-05-10T12:42:33.166Z,22.68
2023-05-10T12:43:33.167Z,24.00
2023-05-10T12:44:33.206Z,24.48